createdAt,value
2016-10-14T00:00:43.827Z,1004.51
2016-10-14T00:01:43.974Z,1004.45
2016-10-14T00:02:43.988Z,1004.46
2016-10-14T00:03:43.850Z,1004.43
2016-10-14T00:04:44.052Z,1004.39
2016-10-14T00:05:43.932Z,1004.42
2016-10-14T00:06:44.215Z,1004.42
2016-10-14T00:07:43.980Z,1004.44
2016-10-14T00:08:44.146Z,1004.46
2016-10-14T00:09:43.881Z,1004.46
2016-10-14T00:10:44.155Z,1004.44
2016-10-14T00:11:43.935Z,1004.43
2016-10-14T00:12:43.925Z,1004.42
2016-10-14T00:13:44.031Z,1004.41
2016-10-14T00:14:43.986Z,1004.42
2016-10-14T00:15:44.300Z,1004.39
2016-10-14T00:16:43.994Z,1004.43
2016-10-14T00:17:43.972Z,1004.41
2016-10-14T00:18:44.361Z,1004.4
2016-10-14T00:19:44.384Z,1004.33
2016-10-14T00:20:44.144Z,1004.37
2016-10-14T00:21:44.031Z,1004.28
2016-10-14T00:22:44.618Z,1004.22
2016-10-14T00:23:44.208Z,1004.18
2016-10-14T00:24:44.171Z,1004.18
2016-10-14T00:25:44.092Z,1004.19
2016-10-14T00:26:44.089Z,1004.17
2016-10-14T00:27:44.204Z,1004.15
2016-10-14T00:28:44.124Z,1004.17
2016-10-14T00:29:44.207Z,1004.18
2016-10-14T00:30:44.341Z,1004.19
2016-10-14T00:31:44.161Z,1004.15
2016-10-14T00:32:44.521Z,1004.17
2016-10-14T00:33:44.344Z,1004.13
2016-10-14T00:34:44.218Z,1004.17
2016-10-14T00:35:44.437Z,1004.13
2016-10-14T00:36:44.336Z,1004.14
2016-10-14T00:37:44.301Z,1004.13
2016-10-14T00:38:44.216Z,1004.12
2016-10-14T00:39:44.743Z,1004.12
2016-10-14T00:40:44.356Z,1004.13
2016-10-14T00:41:44.455Z,1004.13
2016-10-14T00:42:44.529Z,1004.15
2016-10-14T00:43:44.474Z,1004.12
2016-10-14T00:44:44.405Z,1004.13
2016-10-14T00:45:44.977Z,1004.12
2016-10-14T00:46:44.487Z,1004.12
2016-10-14T00:47:44.567Z,1004.03
2016-10-14T00:48:44.475Z,1004.03
2016-10-14T00:49:44.729Z,1004.08
2016-10-14T00:50:44.892Z,1004.07
2016-10-14T00:51:44.498Z,1004.09
2016-10-14T00:52:44.518Z,1004.05
2016-10-14T00:53:44.828Z,1004.05
2016-10-14T00:54:44.849Z,1004.02
2016-10-14T00:55:44.667Z,1004.02
2016-10-14T00:56:45.018Z,1004.03
2016-10-14T00:57:44.565Z,1004
2016-10-14T00:58:45.327Z,1004.02
2016-10-14T00:59:44.600Z,1004.02
2016-10-14T01:00:44.784Z,1004.05
2016-10-14T01:01:44.939Z,1003.94
2016-10-14T01:02:44.908Z,1003.93
2016-10-14T01:03:44.877Z,1003.97
2016-10-14T01:04:44.714Z,1003.91
2016-10-14T01:05:44.941Z,1003.89
2016-10-14T01:06:44.765Z,1003.86
2016-10-14T01:07:44.902Z,1003.84
2016-10-14T01:08:44.812Z,1003.84
2016-10-14T01:09:45.171Z,1003.86
2016-10-14T01:10:45.003Z,1003.84
2016-10-14T01:11:44.936Z,1003.87
2016-10-14T01:12:44.917Z,1003.88
2016-10-14T01:13:45.187Z,1003.87
2016-10-14T01:14:45.010Z,1003.88
2016-10-14T01:15:45.156Z,1003.91
2016-10-14T01:16:45.110Z,1003.94
2016-10-14T01:17:44.980Z,1003.9
2016-10-14T01:18:44.971Z,1003.86
2016-10-14T01:19:44.976Z,1003.89
2016-10-14T01:20:45.128Z,1003.87
2016-10-14T01:21:45.136Z,1003.82
2016-10-14T01:22:45.612Z,1003.89
2016-10-14T01:23:45.337Z,1003.81
2016-10-14T01:24:45.139Z,1003.81
2016-10-14T01:25:45.250Z,1003.81
2016-10-14T01:26:45.968Z,1003.76
2016-10-14T01:27:45.233Z,1003.77
2016-10-14T01:28:45.271Z,1003.72
2016-10-14T01:29:45.289Z,1003.75
2016-10-14T01:30:45.369Z,1003.72
2016-10-14T01:31:45.568Z,1003.66
2016-10-14T01:32:45.238Z,1003.7
2016-10-14T01:33:45.239Z,1003.68
2016-10-14T01:34:45.403Z,1003.64
2016-10-14T01:35:45.311Z,1003.67
2016-10-14T01:36:45.311Z,1003.62
2016-10-14T01:37:45.425Z,1003.59
2016-10-14T01:38:45.373Z,1003.57
2016-10-14T01:39:45.324Z,1003.52
2016-10-14T01:40:45.480Z,1003.54
2016-10-14T01:41:45.403Z,1003.49
2016-10-14T01:42:45.361Z,1003.5
2016-10-14T01:43:45.469Z,1003.48
2016-10-14T01:44:45.444Z,1003.46
2016-10-14T01:45:45.384Z,1003.41
2016-10-14T01:46:45.644Z,1003.4
2016-10-14T01:47:45.618Z,1003.34
2016-10-14T01:48:45.706Z,1003.33
2016-10-14T01:49:45.639Z,1003.31
2016-10-14T01:50:45.565Z,1003.31
2016-10-14T01:51:45.837Z,1003.29
2016-10-14T01:52:45.700Z,1003.26
2016-10-14T01:53:45.637Z,1003.17
2016-10-14T01:54:45.677Z,1003.13
2016-10-14T01:55:45.774Z,1003.15
2016-10-14T01:56:45.623Z,1003.1
2016-10-14T01:57:45.788Z,1003.13
2016-10-14T01:58:45.701Z,1003.14
2016-10-14T01:59:45.935Z,1003.17
2016-10-14T02:00:45.711Z,1003.13
2016-10-14T02:01:45.676Z,1003.16
2016-10-14T02:02:45.863Z,1003.11
2016-10-14T02:03:45.985Z,1003.09
2016-10-14T02:04:45.760Z,1003.07
2016-10-14T02:05:45.814Z,1003.08
2016-10-14T02:06:45.698Z,1003.07
2016-10-14T02:07:45.830Z,1003.06
2016-10-14T02:08:46.028Z,1003.02
2016-10-14T02:09:45.837Z,1003
2016-10-14T02:10:46.068Z,1003.03
2016-10-14T02:11:45.825Z,1002.99
2016-10-14T02:12:45.926Z,1002.96
2016-10-14T02:13:46.211Z,1002.95
2016-10-14T02:14:45.859Z,1002.95
2016-10-14T02:15:45.932Z,1002.91
2016-10-14T02:16:46.024Z,1002.9
2016-10-14T02:17:45.954Z,1002.97
2016-10-14T02:18:46.003Z,1002.9
2016-10-14T02:19:46.198Z,1002.92
2016-10-14T02:20:46.046Z,1002.94
2016-10-14T02:21:45.924Z,1002.88
2016-10-14T02:22:45.915Z,1002.86
2016-10-14T02:23:46.551Z,1002.86
2016-10-14T02:24:46.111Z,1002.85
2016-10-14T02:25:46.428Z,1002.82
2016-10-14T02:26:46.490Z,1002.77
2016-10-14T02:27:46.513Z,1002.74
2016-10-14T02:28:46.060Z,1002.77
2016-10-14T02:29:46.571Z,1002.74
2016-10-14T02:30:46.681Z,1002.73
2016-10-14T02:31:46.423Z,1002.69
2016-10-14T02:32:46.401Z,1002.71
2016-10-14T02:33:46.409Z,1002.75
2016-10-14T02:34:46.451Z,1002.7
2016-10-14T02:35:46.573Z,1002.66
2016-10-14T02:36:46.755Z,1002.72
2016-10-14T02:37:46.358Z,1002.66
2016-10-14T02:38:46.723Z,1002.63
2016-10-14T02:39:46.743Z,1002.64
2016-10-14T02:40:46.555Z,1002.6
2016-10-14T02:41:46.708Z,1002.57
2016-10-14T02:42:46.899Z,1002.59
2016-10-14T02:43:46.525Z,1002.6
2016-10-14T02:44:46.694Z,1002.55
2016-10-14T02:45:46.828Z,1002.57
2016-10-14T02:46:46.634Z,1002.5
2016-10-14T02:47:46.484Z,1002.54
2016-10-14T02:48:46.491Z,1002.53
2016-10-14T02:49:46.556Z,1002.58
2016-10-14T02:50:46.775Z,1002.55
2016-10-14T02:51:46.573Z,1002.53
2016-10-14T02:52:46.635Z,1002.54
2016-10-14T02:53:46.454Z,1002.52
2016-10-14T02:54:46.595Z,1002.49
2016-10-14T02:55:46.570Z,1002.51
2016-10-14T02:56:46.785Z,1002.5
2016-10-14T02:57:46.698Z,1002.52
2016-10-14T02:58:46.554Z,1002.51
2016-10-14T02:59:46.749Z,1002.54
2016-10-14T03:00:46.726Z,1002.51
2016-10-14T03:01:46.727Z,1002.5
2016-10-14T03:02:46.716Z,1002.44
2016-10-14T03:03:47.106Z,1002.43
2016-10-14T03:04:46.901Z,1002.5
2016-10-14T03:05:47.355Z,1002.5
2016-10-14T03:06:46.713Z,1002.49
2016-10-14T03:07:46.797Z,1002.54
2016-10-14T03:08:46.959Z,1002.5
2016-10-14T03:09:46.803Z,1002.52
2016-10-14T03:10:46.838Z,1002.51
2016-10-14T03:11:46.924Z,1002.48
2016-10-14T03:12:47.197Z,1002.44
2016-10-14T03:13:46.992Z,1002.43
2016-10-14T03:14:46.911Z,1002.4
2016-10-14T03:15:46.935Z,1002.43
2016-10-14T03:16:46.883Z,1002.39
2016-10-14T03:17:46.797Z,1002.37
2016-10-14T03:18:47.038Z,1002.4
2016-10-14T03:19:46.943Z,1002.4
2016-10-14T03:20:47.167Z,1002.43
2016-10-14T03:21:47.392Z,1002.35
2016-10-14T03:22:47.104Z,1002.37
2016-10-14T03:23:47.024Z,1002.37
2016-10-14T03:24:47.099Z,1002.37
2016-10-14T03:25:47.086Z,1002.34
2016-10-14T03:26:47.192Z,1002.38
2016-10-14T03:27:47.195Z,1002.31
2016-10-14T03:28:47.107Z,1002.34
2016-10-14T03:29:47.501Z,1002.35
2016-10-14T03:30:47.152Z,1002.34
2016-10-14T03:31:47.382Z,1002.33
2016-10-14T03:32:47.097Z,1002.4
2016-10-14T03:33:47.702Z,1002.39
2016-10-14T03:34:47.218Z,1002.33
2016-10-14T03:35:47.171Z,1002.35
2016-10-14T03:36:47.254Z,1002.34
2016-10-14T03:37:47.297Z,1002.36
2016-10-14T03:38:47.223Z,1002.32
2016-10-14T03:39:47.437Z,1002.35
2016-10-14T03:40:47.425Z,1002.32
2016-10-14T03:41:47.218Z,1002.29
2016-10-14T03:42:47.484Z,1002.19
2016-10-14T03:43:47.496Z,1002.23
2016-10-14T03:44:47.993Z,1002.21
2016-10-14T03:45:47.655Z,1002.15
2016-10-14T03:46:47.481Z,1002.21
2016-10-14T03:47:47.583Z,1002.17
2016-10-14T03:48:47.549Z,1002.11
2016-10-14T03:49:47.440Z,1002.13
2016-10-14T03:50:47.654Z,1002.11
2016-10-14T03:51:47.660Z,1002.08
2016-10-14T03:52:48.175Z,1002.12
2016-10-14T03:53:47.503Z,1002.09
2016-10-14T03:54:47.563Z,1002.07
2016-10-14T03:55:47.580Z,1002.08
2016-10-14T03:56:47.528Z,1002.05
2016-10-14T03:57:47.692Z,1002.06
2016-10-14T03:58:47.586Z,1002.09
2016-10-14T03:59:47.529Z,1002.06
2016-10-14T04:00:47.647Z,1002
2016-10-14T04:01:47.591Z,1002.02
2016-10-14T04:02:47.798Z,1001.97
2016-10-14T04:03:47.684Z,1001.91
2016-10-14T04:04:47.924Z,1001.9
2016-10-14T04:05:47.720Z,1001.89
2016-10-14T04:06:47.824Z,1001.93
2016-10-14T04:07:47.649Z,1001.87
2016-10-14T04:08:47.650Z,1001.89
2016-10-14T04:09:47.789Z,1001.92
2016-10-14T04:10:47.793Z,1001.91
2016-10-14T04:11:47.947Z,1001.98
2016-10-14T04:12:47.793Z,1001.96
2016-10-14T04:13:47.869Z,1001.98
2016-10-14T04:14:47.947Z,1001.99
2016-10-14T04:15:47.858Z,1001.94
2016-10-14T04:16:47.784Z,1001.92
2016-10-14T04:17:47.839Z,1001.92
2016-10-14T04:18:47.811Z,1001.87
2016-10-14T04:19:48.197Z,1001.9
2016-10-14T04:20:47.967Z,1001.87
2016-10-14T04:21:48.018Z,1001.88
2016-10-14T04:22:48.298Z,1001.88
2016-10-14T04:23:47.947Z,1001.89
2016-10-14T04:24:48.088Z,1001.92
2016-10-14T04:25:47.922Z,1001.92
2016-10-14T04:26:48.064Z,1001.89
2016-10-14T04:27:48.250Z,1001.93
2016-10-14T04:28:47.976Z,1001.89
2016-10-14T04:29:48.144Z,1001.9
2016-10-14T04:30:48.207Z,1001.85
2016-10-14T04:31:48.363Z,1001.89
2016-10-14T04:32:48.059Z,1001.84
2016-10-14T04:33:48.593Z,1001.82
2016-10-14T04:34:48.498Z,1001.87
2016-10-14T04:35:48.295Z,1001.82
2016-10-14T04:36:48.181Z,1001.86
2016-10-14T04:37:48.202Z,1001.9
2016-10-14T04:38:48.332Z,1001.91
2016-10-14T04:39:48.231Z,1001.89
2016-10-14T04:40:48.301Z,1001.89
2016-10-14T04:41:48.186Z,1001.84
2016-10-14T04:42:48.495Z,1001.89
2016-10-14T04:43:48.288Z,1001.91
2016-10-14T04:44:48.263Z,1001.91
2016-10-14T04:45:48.407Z,1001.92
2016-10-14T04:46:48.407Z,1001.93
2016-10-14T04:47:48.414Z,1001.93
2016-10-14T04:48:48.514Z,1001.93
2016-10-14T04:49:48.308Z,1001.95
2016-10-14T04:50:48.495Z,1001.99
2016-10-14T04:51:48.503Z,1001.96
2016-10-14T04:52:48.464Z,1001.91
2016-10-14T04:53:48.564Z,1001.89
2016-10-14T04:54:48.630Z,1001.94
2016-10-14T04:55:48.524Z,1001.87
2016-10-14T04:56:48.682Z,1001.92
2016-10-14T04:57:48.562Z,1001.87
2016-10-14T04:58:48.641Z,1001.88
2016-10-14T04:59:48.676Z,1001.88
2016-10-14T05:00:48.828Z,1001.89
2016-10-14T05:01:48.835Z,1001.86
2016-10-14T05:02:48.587Z,1001.89
2016-10-14T05:03:48.480Z,1001.89
2016-10-14T05:05:48.619Z,1001.93
2016-10-14T05:06:48.704Z,1001.91
2016-10-14T05:07:48.952Z,1001.92
2016-10-14T05:08:49.109Z,1001.91
2016-10-14T05:09:48.761Z,1001.91
2016-10-14T05:10:48.908Z,1001.9
2016-10-14T05:11:48.816Z,1001.9
2016-10-14T05:12:48.887Z,1001.9
2016-10-14T05:13:49.015Z,1001.85
2016-10-14T05:14:49.078Z,1001.86
2016-10-14T05:15:48.810Z,1001.9
2016-10-14T05:16:48.816Z,1001.84
2016-10-14T05:17:49.051Z,1001.89
2016-10-14T05:18:48.851Z,1001.8
2016-10-14T05:19:48.750Z,1001.76
2016-10-14T05:20:48.848Z,1001.79
2016-10-14T05:21:48.974Z,1001.78
2016-10-14T05:22:48.933Z,1001.76
2016-10-14T05:23:48.977Z,1001.75
2016-10-14T05:24:49.005Z,1001.74
2016-10-14T05:25:48.939Z,1001.74
2016-10-14T05:26:49.113Z,1001.74
2016-10-14T05:27:49.010Z,1001.7
2016-10-14T05:28:48.993Z,1001.7
2016-10-14T05:29:49.185Z,1001.69
2016-10-14T05:30:49.190Z,1001.64
2016-10-14T05:31:49.098Z,1001.7
2016-10-14T05:32:48.966Z,1001.66
2016-10-14T05:33:49.144Z,1001.66
2016-10-14T05:34:49.186Z,1001.7
2016-10-14T05:35:49.253Z,1001.72
2016-10-14T05:36:49.315Z,1001.71
2016-10-14T05:37:49.485Z,1001.66
2016-10-14T05:38:49.591Z,1001.7
2016-10-14T05:39:49.272Z,1001.64
2016-10-14T05:40:49.230Z,1001.69
2016-10-14T05:41:49.286Z,1001.7
2016-10-14T05:42:49.126Z,1001.73
2016-10-14T05:43:49.232Z,1001.72
2016-10-14T05:44:49.256Z,1001.72
2016-10-14T05:45:49.209Z,1001.7
2016-10-14T05:46:49.289Z,1001.69
2016-10-14T05:47:49.198Z,1001.78
2016-10-14T05:48:49.245Z,1001.73
2016-10-14T05:49:49.500Z,1001.72
2016-10-14T05:50:49.333Z,1001.74
2016-10-14T05:51:49.326Z,1001.75
2016-10-14T05:52:49.291Z,1001.72
2016-10-14T05:53:49.344Z,1001.75
2016-10-14T05:54:49.331Z,1001.72
2016-10-14T05:55:49.431Z,1001.7
2016-10-14T05:56:49.456Z,1001.69
2016-10-14T05:57:49.430Z,1001.75
2016-10-14T05:58:49.556Z,1001.82
2016-10-14T05:59:49.679Z,1001.82
2016-10-14T06:00:49.621Z,1001.76
2016-10-14T06:01:49.914Z,1001.83
2016-10-14T06:02:49.760Z,1001.85
2016-10-14T06:03:49.559Z,1001.86
2016-10-14T06:04:49.551Z,1001.89
2016-10-14T06:05:49.740Z,1001.85
2016-10-14T06:06:49.775Z,1001.9
2016-10-14T06:07:49.906Z,1001.91
2016-10-14T06:08:50.028Z,1001.87
2016-10-14T06:09:49.673Z,1001.82
2016-10-14T06:10:49.629Z,1001.9
2016-10-14T06:11:50.229Z,1001.87
2016-10-14T06:12:49.785Z,1001.84
2016-10-14T06:13:49.789Z,1001.87
2016-10-14T06:14:49.796Z,1001.79
2016-10-14T06:15:49.920Z,1001.81
2016-10-14T06:16:50.126Z,1001.85
2016-10-14T06:17:49.774Z,1001.88
2016-10-14T06:18:49.862Z,1001.89
2016-10-14T06:19:50.219Z,1001.93
2016-10-14T06:20:49.744Z,1001.83
2016-10-14T06:21:50.184Z,1001.85
2016-10-14T06:22:49.962Z,1001.86
2016-10-14T06:23:50.006Z,1001.84
2016-10-14T06:24:50.017Z,1001.82
2016-10-14T06:25:49.893Z,1001.85
2016-10-14T06:26:54.895Z,1001.86
2016-10-14T06:27:50.926Z,1001.84
2016-10-14T06:28:51.071Z,1001.86
2016-10-14T06:29:49.842Z,1001.89
2016-10-14T06:31:51.263Z,1001.84
2016-10-14T06:32:49.888Z,1001.9
2016-10-14T06:33:49.901Z,1001.9
2016-10-14T06:34:50.461Z,1001.86
2016-10-14T06:35:50.788Z,1001.87
2016-10-14T06:36:50.246Z,1001.87
2016-10-14T06:37:50.247Z,1001.83
2016-10-14T06:38:50.054Z,1001.78
2016-10-14T06:39:50.251Z,1001.82
2016-10-14T06:40:50.349Z,1001.76
2016-10-14T06:41:50.211Z,1001.75
2016-10-14T06:42:50.212Z,1001.67
2016-10-14T06:43:50.261Z,1001.74
2016-10-14T06:44:50.178Z,1001.7
2016-10-14T06:45:50.495Z,1001.71
2016-10-14T06:46:50.161Z,1001.73
2016-10-14T06:47:50.220Z,1001.71
2016-10-14T06:48:50.291Z,1001.72
2016-10-14T06:49:50.515Z,1001.7
2016-10-14T06:50:50.276Z,1001.82
2016-10-14T06:51:50.309Z,1001.84
2016-10-14T06:52:50.310Z,1001.87
2016-10-14T06:53:50.431Z,1001.8
2016-10-14T06:54:50.479Z,1001.78
2016-10-14T06:55:50.609Z,1001.76
2016-10-14T06:56:50.529Z,1001.79
2016-10-14T06:57:50.822Z,1001.81
2016-10-14T06:58:50.587Z,1001.76
2016-10-14T06:59:50.569Z,1001.72
2016-10-14T07:00:50.324Z,1001.76
2016-10-14T07:01:50.764Z,1001.75
2016-10-14T07:02:50.852Z,1001.78
2016-10-14T07:03:50.585Z,1001.78
2016-10-14T07:04:50.575Z,1001.77
2016-10-14T07:05:50.849Z,1001.78
2016-10-14T07:06:50.419Z,1001.77
2016-10-14T07:07:50.549Z,1001.79
2016-10-14T07:08:50.653Z,1001.75
2016-10-14T07:09:50.908Z,1001.77
2016-10-14T07:10:50.973Z,1001.72
2016-10-14T07:11:50.620Z,1001.69
2016-10-14T07:12:50.944Z,1001.72
2016-10-14T07:13:50.925Z,1001.73
2016-10-14T07:14:50.870Z,1001.68
2016-10-14T07:15:50.702Z,1001.73
2016-10-14T07:16:50.763Z,1001.72
2016-10-14T07:17:50.986Z,1001.7
2016-10-14T07:18:50.979Z,1001.73
2016-10-14T07:19:50.877Z,1001.66
2016-10-14T07:20:50.831Z,1001.75
2016-10-14T07:21:50.772Z,1001.7
2016-10-14T07:22:50.969Z,1001.67
2016-10-14T07:23:50.861Z,1001.71
2016-10-14T07:24:50.946Z,1001.56
2016-10-14T07:25:50.895Z,1001.68
2016-10-14T07:26:50.878Z,1001.59
2016-10-14T07:27:51.210Z,1001.59
2016-10-14T07:28:50.835Z,1001.56
2016-10-14T07:29:51.091Z,1001.56
2016-10-14T07:30:51.088Z,1001.63
2016-10-14T07:31:51.027Z,1001.64
2016-10-14T07:32:51.354Z,1001.64
2016-10-14T07:33:51.103Z,1001.59
2016-10-14T07:34:51.023Z,1001.6
2016-10-14T07:35:51.342Z,1001.67
2016-10-14T07:36:51.589Z,1001.61
2016-10-14T07:37:51.166Z,1001.62
2016-10-14T07:38:51.271Z,1001.65
2016-10-14T07:39:51.174Z,1001.63
2016-10-14T07:40:51.327Z,1001.65
2016-10-14T07:41:51.431Z,1001.66
2016-10-14T07:42:51.350Z,1001.64
2016-10-14T07:43:51.414Z,1001.61
2016-10-14T07:44:51.262Z,1001.61
2016-10-14T07:45:51.266Z,1001.64
2016-10-14T07:46:51.149Z,1001.58
2016-10-14T07:47:51.451Z,1001.59
2016-10-14T07:48:51.266Z,1001.58
2016-10-14T07:49:51.192Z,1001.65
2016-10-14T07:50:51.602Z,1001.55
2016-10-14T07:51:51.300Z,1001.55
2016-10-14T07:52:51.356Z,1001.55
2016-10-14T07:53:51.229Z,1001.52
2016-10-14T07:54:51.583Z,1001.5
2016-10-14T07:55:51.374Z,1001.45
2016-10-14T07:56:51.455Z,1001.44
2016-10-14T07:57:51.555Z,1001.51
2016-10-14T07:58:51.430Z,1001.45
2016-10-14T07:59:51.497Z,1001.44
2016-10-14T08:00:51.728Z,1001.48
2016-10-14T08:01:51.388Z,1001.46
2016-10-14T08:02:51.553Z,1001.55
2016-10-14T08:03:51.935Z,1001.42
2016-10-14T08:04:51.510Z,1001.43
2016-10-14T08:05:53.282Z,1001.46
2016-10-14T08:06:51.444Z,1001.49
2016-10-14T08:07:51.672Z,1001.46
2016-10-14T08:08:53.008Z,1001.45
2016-10-14T08:09:51.696Z,1001.47
2016-10-14T08:10:51.864Z,1001.42
2016-10-14T08:11:52.044Z,1001.45
2016-10-14T08:12:51.789Z,1001.44
2016-10-14T08:13:51.789Z,1001.45
2016-10-14T08:14:51.743Z,1001.33
2016-10-14T08:15:52.016Z,1001.39
2016-10-14T08:16:51.895Z,1001.29
2016-10-14T08:17:52.606Z,1001.36
2016-10-14T08:18:51.902Z,1001.28
2016-10-14T08:19:51.925Z,1001.31
2016-10-14T08:20:51.833Z,1001.21
2016-10-14T08:21:51.793Z,1001.23
2016-10-14T08:22:51.956Z,1001.19
2016-10-14T08:23:52.063Z,1001.18
2016-10-14T08:24:52.095Z,1001.2
2016-10-14T08:25:51.904Z,1001.18
2016-10-14T08:26:52.067Z,1001.18
2016-10-14T08:27:52.096Z,1001.2
2016-10-14T08:28:51.942Z,1001.15
2016-10-14T08:29:52.390Z,1001.19
2016-10-14T08:30:52.032Z,1001.17
2016-10-14T08:31:52.380Z,1001.13
2016-10-14T08:32:52.441Z,1001.29
2016-10-14T08:33:52.973Z,1001.34
2016-10-14T08:34:52.120Z,1001.26
2016-10-14T08:35:52.537Z,1001.18
2016-10-14T08:36:52.390Z,1001.22
2016-10-14T08:37:52.575Z,1001.17
2016-10-14T08:38:52.355Z,1001.08
2016-10-14T08:39:52.443Z,1001.07
2016-10-14T08:40:52.741Z,1001.09
2016-10-14T08:41:52.712Z,1001.12
2016-10-14T08:42:52.621Z,1001.1
2016-10-14T08:43:52.756Z,1001.09
2016-10-14T08:44:52.673Z,1001.07
2016-10-14T08:45:53.305Z,1001.12
2016-10-14T08:46:53.296Z,1001.15
2016-10-14T08:47:52.420Z,1001.13
2016-10-14T08:48:54.229Z,1001.1
2016-10-14T08:50:52.529Z,1001.17
2016-10-14T08:51:52.725Z,1001.2
2016-10-14T08:52:52.879Z,1001.16
2016-10-14T08:53:52.603Z,1001.17
2016-10-14T08:54:52.632Z,1001.16
2016-10-14T08:55:53.138Z,1001.07
2016-10-14T08:56:52.558Z,1001.17
2016-10-14T08:57:52.730Z,1001.06
2016-10-14T08:58:52.588Z,1001.12
2016-10-14T08:59:52.782Z,1001.06
2016-10-14T09:00:53.107Z,1001.09
2016-10-14T09:01:52.812Z,1001.12
2016-10-14T09:02:52.910Z,1001.05
2016-10-14T09:03:52.731Z,1001.09
2016-10-14T09:04:52.934Z,1001.09
2016-10-14T09:05:52.772Z,1001
2016-10-14T09:06:53.131Z,1001
2016-10-14T09:07:52.836Z,1001.05
2016-10-14T09:08:52.800Z,1001.05
2016-10-14T09:09:52.997Z,1001.05
2016-10-14T09:10:52.815Z,1001.12
2016-10-14T09:11:52.940Z,1001.12
2016-10-14T09:12:52.972Z,1001.12
2016-10-14T09:13:52.948Z,1001.13
2016-10-14T09:14:52.971Z,1001.18
2016-10-14T09:15:53.076Z,1001.21
2016-10-14T09:16:53.497Z,1001.17
2016-10-14T09:17:53.134Z,1001.18
2016-10-14T09:18:52.965Z,1001.15
2016-10-14T09:19:52.960Z,1001.13
2016-10-14T09:20:53.069Z,1001.15
2016-10-14T09:21:53.324Z,1001.14
2016-10-14T09:22:53.497Z,1001.18
2016-10-14T09:23:53.266Z,1001.16
2016-10-14T09:24:53.512Z,1001.12
2016-10-14T09:25:53.473Z,1001.11
2016-10-14T09:26:53.180Z,1001.08
2016-10-14T09:27:53.417Z,1001.1
2016-10-14T09:28:53.249Z,1001.11
2016-10-14T09:29:53.247Z,1001.15
2016-10-14T09:30:53.332Z,1001.09
2016-10-14T09:31:53.396Z,1001.11
2016-10-14T09:32:53.318Z,1001.1
2016-10-14T09:33:53.357Z,1001.05
2016-10-14T09:34:53.275Z,1001.06
2016-10-14T09:35:56.073Z,1001.06
2016-10-14T09:36:55.447Z,1001.04
2016-10-14T09:37:57.135Z,1001.09
2016-10-14T09:38:53.384Z,1001.11
2016-10-14T09:39:56.387Z,1001.07
2016-10-14T09:40:54.659Z,1001.11
2016-10-14T09:41:53.452Z,1001.06
2016-10-14T09:42:56.671Z,1001.09
2016-10-14T09:43:57.025Z,1001.01
2016-10-14T09:44:53.669Z,1001.08
2016-10-14T09:45:53.636Z,1000.99
2016-10-14T09:46:53.765Z,1001.01
2016-10-14T09:47:53.986Z,1000.97
2016-10-14T09:48:53.767Z,1000.91
2016-10-14T09:49:54.087Z,1000.89
2016-10-14T09:50:54.291Z,1000.89
2016-10-14T09:51:53.814Z,1000.89
2016-10-14T09:52:53.741Z,1000.82
2016-10-14T09:53:54.050Z,1000.8
2016-10-14T09:54:53.839Z,1000.77
2016-10-14T09:55:54.282Z,1000.79
2016-10-14T09:56:54.157Z,1000.74
2016-10-14T09:57:53.841Z,1000.76
2016-10-14T09:58:54.009Z,1000.7
2016-10-14T09:59:54.238Z,1000.69
2016-10-14T10:00:54.065Z,1000.62
2016-10-14T10:01:54.270Z,1000.56
2016-10-14T10:02:54.170Z,1000.61
2016-10-14T10:03:54.068Z,1000.61
2016-10-14T10:04:54.034Z,1000.61
2016-10-14T10:05:54.057Z,1000.63
2016-10-14T10:06:54.174Z,1000.69
2016-10-14T10:07:54.115Z,1000.64
2016-10-14T10:08:54.255Z,1000.64
2016-10-14T10:09:54.286Z,1000.62
2016-10-14T10:10:54.267Z,1000.63
2016-10-14T10:11:54.279Z,1000.61
2016-10-14T10:12:54.565Z,1000.59
2016-10-14T10:13:54.316Z,1000.59
2016-10-14T10:14:54.276Z,1000.64
2016-10-14T10:15:54.896Z,1000.57
2016-10-14T10:16:54.374Z,1000.54
2016-10-14T10:17:54.264Z,1000.46
2016-10-14T10:18:54.367Z,1000.56
2016-10-14T10:19:54.516Z,1000.48
2016-10-14T10:20:54.553Z,1000.46
2016-10-14T10:21:54.423Z,1000.45
2016-10-14T10:22:54.521Z,1000.49
2016-10-14T10:23:54.549Z,1000.47
2016-10-14T10:24:54.866Z,1000.44
2016-10-14T10:25:54.772Z,1000.51
2016-10-14T10:26:54.663Z,1000.47
2016-10-14T10:27:54.539Z,1000.49
2016-10-14T10:28:54.801Z,1000.49
2016-10-14T10:29:54.541Z,1000.45
2016-10-14T10:30:54.616Z,1000.42
2016-10-14T10:31:54.783Z,1000.38
2016-10-14T10:32:54.760Z,1000.41
2016-10-14T10:33:55.096Z,1000.39
2016-10-14T10:34:54.737Z,1000.44
2016-10-14T10:35:54.733Z,1000.51
2016-10-14T10:36:54.827Z,1000.48
2016-10-14T10:37:54.947Z,1000.55
2016-10-14T10:38:54.862Z,1000.49
2016-10-14T10:39:54.888Z,1000.45
2016-10-14T10:40:55.280Z,1000.44
2016-10-14T10:41:54.847Z,1000.46
2016-10-14T10:42:54.946Z,1000.39
2016-10-14T10:43:54.971Z,1000.36
2016-10-14T10:44:55.013Z,1000.48
2016-10-14T10:45:54.996Z,1000.45
2016-10-14T10:46:55.126Z,1000.47
2016-10-14T10:47:54.951Z,1000.48
2016-10-14T10:48:55.200Z,1000.48
2016-10-14T10:49:55.202Z,1000.47
2016-10-14T10:50:55.332Z,1000.5
2016-10-14T10:51:55.414Z,1000.53
2016-10-14T10:52:55.209Z,1000.59
2016-10-14T10:53:55.343Z,1000.57
2016-10-14T10:54:55.284Z,1000.56
2016-10-14T10:55:55.246Z,1000.66
2016-10-14T10:56:55.360Z,1000.58
2016-10-14T10:57:55.465Z,1000.5
2016-10-14T10:58:55.335Z,1000.55
2016-10-14T10:59:55.402Z,1000.41
2016-10-14T11:00:55.552Z,1000.36
2016-10-14T11:01:55.543Z,1000.34
2016-10-14T11:02:55.363Z,1000.37
2016-10-14T11:03:55.557Z,1000.35
2016-10-14T11:04:56.119Z,1000.34
2016-10-14T11:05:55.631Z,1000.46
2016-10-14T11:06:55.643Z,1000.38
2016-10-14T11:07:55.803Z,1000.43
2016-10-14T11:08:55.736Z,1000.39
2016-10-14T11:09:55.927Z,1000.47
2016-10-14T11:10:55.773Z,1000.4
2016-10-14T11:11:55.990Z,1000.43
2016-10-14T11:12:56.114Z,1000.43
2016-10-14T11:13:55.752Z,1000.47
2016-10-14T11:14:56.088Z,1000.42
2016-10-14T11:15:55.899Z,1000.37
2016-10-14T11:16:55.960Z,1000.44
2016-10-14T11:17:55.794Z,1000.42
2016-10-14T11:18:56.096Z,1000.45
2016-10-14T11:19:56.069Z,1000.37
2016-10-14T11:20:56.141Z,1000.39
2016-10-14T11:21:56.010Z,1000.39
2016-10-14T11:22:56.249Z,1000.39
2016-10-14T11:23:56.920Z,1000.37
2016-10-14T11:24:56.421Z,1000.33
2016-10-14T11:25:56.134Z,1000.3
2016-10-14T11:26:56.154Z,1000.29
2016-10-14T11:27:56.208Z,1000.21
2016-10-14T11:28:56.232Z,1000.19
2016-10-14T11:29:56.182Z,1000.18
2016-10-14T11:30:56.566Z,1000.11
2016-10-14T11:31:56.159Z,1000.13
2016-10-14T11:32:56.262Z,1000.1
2016-10-14T11:33:56.541Z,1000.09
2016-10-14T11:34:56.293Z,1000.08
2016-10-14T11:35:56.110Z,1000.11
2016-10-14T11:36:56.902Z,1000.13
2016-10-14T11:37:56.255Z,1000.1
2016-10-14T11:38:56.537Z,1000.12
2016-10-14T11:39:56.831Z,1000.06
2016-10-14T11:40:56.804Z,1000.09
2016-10-14T11:41:56.564Z,1000.16
2016-10-14T11:42:56.621Z,1000.22
2016-10-14T11:43:56.534Z,1000.22
2016-10-14T11:44:56.827Z,1000.25
2016-10-14T11:45:56.775Z,1000.28
2016-10-14T11:46:56.645Z,1000.3
2016-10-14T11:47:56.802Z,1000.31
2016-10-14T11:48:56.717Z,1000.35
2016-10-14T11:49:56.725Z,1000.33
2016-10-14T11:50:56.841Z,1000.32
2016-10-14T11:51:56.880Z,1000.3
2016-10-14T11:52:56.863Z,1000.27
2016-10-14T11:53:56.872Z,1000.34
2016-10-14T11:54:57.198Z,1000.31
2016-10-14T11:55:56.899Z,1000.31
2016-10-14T11:56:57.028Z,1000.3
2016-10-14T11:57:56.800Z,1000.3
2016-10-14T11:58:56.850Z,1000.32
2016-10-14T11:59:57.401Z,1000.31
2016-10-14T12:00:56.897Z,1000.25
2016-10-14T12:01:57.098Z,1000.21
2016-10-14T12:02:57.337Z,1000.09
2016-10-14T12:03:57.178Z,1000.13
2016-10-14T12:04:56.987Z,1000.11
2016-10-14T12:05:57.262Z,1000.13
2016-10-14T12:06:57.037Z,1000.1
2016-10-14T12:07:57.285Z,1000.1
2016-10-14T12:08:57.076Z,999.92
2016-10-14T12:09:57.132Z,999.92
2016-10-14T12:10:57.226Z,999.84
2016-10-14T12:11:57.085Z,999.76